Time;durP1;ratioP1;P1;durP2;ratioP2;P2;SDS_P1;SDS_P2;PMS_P1;PMS_P2;Temp;Humidity;BMP_temperature;BMP_pressure;BME280_temperature;BME280_humidity;BME280_pressure;Samples;Min_cycle;Max_cycle;Signal;HPM_P1;HPM_P2
2021/07/09 00:02:33;;;;;;;8.00;5.25;;;;;;;23.03;58.85;100296.01;1794340;77;21483;-43
2021/07/09 00:05:00;;;;;;;5.75;5.05;;;;;;;22.99;58.90;100293.91;1761014;79;20930;-43
2021/07/09 00:07:27;;;;;;;11.10;5.17;;;;;;;22.95;59.15;100291.97;1770408;79;21013;-43
2021/07/09 00:09:54;;;;;;;9.88;5.33;;;;;;;22.92;59.09;100291.44;1740074;81;21123;-43
2021/07/09 00:12:22;;;;;;;7.40;5.28;;;;;;;22.90;59.12;100288.30;1749158;81;21522;-43
2021/07/09 00:14:50;;;;;;;7.17;5.15;;;;;;;22.87;59.26;100290.53;1741886;80;20921;-43
2021/07/09 00:17:16;;;;;;;7.05;4.60;;;;;;;22.84;59.28;100292.77;1776039;78;21029;-43
2021/07/09 00:19:43;;;;;;;8.35;4.80;;;;;;;22.82;59.26;100291.00;1753649;79;21074;-43
2021/07/09 00:22:11;;;;;;;7.37;5.00;;;;;;;22.84;59.18;100293.36;1717857;82;21104;-43
2021/07/09 00:24:38;;;;;;;9.63;4.78;;;;;;;22.87;59.15;100290.53;1748947;80;20903;-43
2021/07/09 00:27:06;;;;;;;8.68;4.75;;;;;;;22.86;59.31;100288.17;1746111;80;20996;-43
2021/07/09 00:29:33;;;;;;;6.37;4.90;;;;;;;22.85;59.40;100286.63;1757261;80;21567;-43
2021/07/09 00:32:00;;;;;;;8.68;5.08;;;;;;;22.83;59.23;100282.90;1737421;80;21053;-43
2021/07/09 00:34:27;;;;;;;10.53;4.95;;;;;;;22.82;59.39;100278.56;1738339;81;21125;-43
2021/07/09 00:36:55;;;;;;;6.35;4.80;;;;;;;22.81;59.22;100274.83;1761071;81;20925;-43
2021/07/09 00:39:22;;;;;;;8.95;5.15;;;;;;;22.79;59.07;100280.02;1761704;81;21034;-43
2021/07/09 00:41:48;;;;;;;6.70;5.03;;;;;;;22.76;59.17;100274.70;1743656;80;20894;-43
2021/07/09 00:44:15;;;;;;;5.20;4.70;;;;;;;22.72;59.18;100276.75;1753426;81;21105;-42
2021/07/09 00:46:41;;;;;;;6.22;5.20;;;;;;;22.65;59.26;100269.94;1753330;81;21097;-43
2021/07/09 00:49:09;;;;;;;7.53;4.95;;;;;;;;;;1743147;80;21546;-43
2021/07/09 00:51:36;;;;;;;9.85;5.03;;;;;;;22.59;59.62;100270.83;1733698;80;20941;-43
2021/07/09 00:54:03;;;;;;;10.75;5.05;;;;;;;22.53;59.80;100269.12;1768595;79;21559;-43
2021/07/09 00:56:31;;;;;;;8.30;4.75;;;;;;;22.49;60.04;100273.93;1743126;81;21088;-43
2021/07/09 00:58:58;;;;;;;8.28;5.00;;;;;;;22.52;59.88;100277.23;1715662;80;21139;-43
2021/07/09 01:01:25;;;;;;;7.60;5.40;;;;;;;22.53;60.04;100272.67;1748598;81;21580;-43
2021/07/09 01:03:51;;;;;;;7.80;4.97;;;;;;;22.52;60.04;100272.48;1732879;79;21061;-43
2021/07/09 01:06:18;;;;;;;9.43;5.55;;;;;;;22.51;60.08;100275.06;1727060;81;21033;-43
2021/07/09 01:08:45;;;;;;;6.47;5.15;;;;;;;22.52;60.06;100274.47;1720601;81;20998;-43
2021/07/09 01:11:12;;;;;;;9.35;5.55;;;;;;;22.51;59.98;100264.01;1759323;81;22020;-43
2021/07/09 01:13:41;;;;;;;7.40;5.42;;;;;;;22.52;59.91;100266.96;1704660;80;21493;-43
2021/07/09 01:16:12;;;;;;;11.88;5.40;;;;;;;22.51;59.91;100267.40;1752088;79;20965;-43
2021/07/09 01:18:39;;;;;;;;;;;;;;;22.49;59.89;100269.78;1752364;80;21339;-43
2021/07/09 01:21:09;;;;;;;6.92;5.42;;;;;;;22.47;59.96;100274.94;1731717;81;20130;-43
2021/07/09 01:23:37;;;;;;;6.45;5.25;;;;;;;22.35;60.18;100270.00;1755057;81;21205;-43
2021/07/09 01:26:05;;;;;;;10.13;5.53;;;;;;;22.34;60.33;100271.98;1767357;79;20934;-43
2021/07/09 01:28:32;;;;;;;8.18;5.50;;;;;;;22.31;60.43;100269.27;1746208;79;21524;-43
2021/07/09 01:30:59;;;;;;;8.05;4.95;;;;;;;22.30;60.52;100275.99;1762369;79;21030;-42
2021/07/09 01:33:26;;;;;;;5.83;4.80;;;;;;;22.30;60.59;100272.63;1709445;81;21014;-43
2021/07/09 01:35:54;;;;;;;6.45;5.05;;;;;;;22.32;60.43;100270.81;1750878;79;20974;-43
2021/07/09 01:38:21;;;;;;;6.80;5.28;;;;;;;22.31;60.40;100267.89;1758465;79;20997;-43
2021/07/09 01:40:48;;;;;;;7.00;5.55;;;;;;;22.32;60.29;100269.43;1731025;81;21500;-43
2021/07/09 01:43:14;;;;;;;8.35;5.10;;;;;;;22.31;60.27;100267.30;1730276;81;21564;-43
2021/07/09 01:45:41;;;;;;;7.17;5.00;;;;;;;22.31;60.20;100274.80;1744956;80;21038;-43
2021/07/09 01:48:07;;;;;;;8.53;5.05;;;;;;;22.27;60.20;100265.16;1735045;82;21061;-43
2021/07/09 01:50:34;;;;;;;8.75;4.78;;;;;;;22.25;60.19;100268.17;1743110;80;21614;-43
2021/07/09 01:53:01;;;;;;;6.12;5.22;;;;;;;22.21;60.17;100260.54;1742209;80;21043;-43
2021/07/09 01:55:28;;;;;;;7.62;4.80;;;;;;;22.17;60.21;100259.81;1748578;79;21014;-43
2021/07/09 01:57:56;;;;;;;6.20;4.90;;;;;;;22.10;60.17;100255.94;1751512;80;21064;-43
2021/07/09 02:00:25;;;;;;;7.03;4.90;;;;;;;22.07;60.04;100262.28;1747779;80;21127;-42
2021/07/09 02:02:51;;;;;;;6.20;4.28;;;;;;;22.01;60.05;100258.44;1755529;81;20984;-43
2021/07/09 02:05:19;;;;;;;9.58;4.53;;;;;;;21.99;60.37;100255.89;1750468;80;20996;-43
2021/07/09 02:07:54;;;;;;;7.35;4.40;;;;;;;21.98;60.36;100260.63;1739748;80;21024;-43
2021/07/09 02:10:24;;;;;;;6.42;4.30;;;;;;;21.99;60.33;100259.44;1741019;80;21084;-43
2021/07/09 02:12:54;;;;;;;9.23;4.75;;;;;;;21.96;60.36;100260.28;1752807;78;21797;-43
2021/07/09 02:15:25;;;;;;;6.33;4.53;;;;;;;21.95;60.41;100262.06;1752891;80;21033;-43
2021/07/09 02:17:53;;;;;;;6.92;4.83;;;;;;;21.93;60.45;100267.20;1776611;80;21507;-43
2021/07/09 02:20:23;;;;;;;9.08;4.67;;;;;;;21.91;60.48;100265.44;1736864;80;20978;-43
2021/07/09 02:22:50;;;;;;;12.73;5.10;;;;;;;21.90;60.56;100270.17;1795403;77;21080;-43
2021/07/09 02:25:16;;;;;;;7.55;4.60;;;;;;;21.87;60.56;100272.40;1793593;77;21098;-43
2021/07/09 02:27:46;;;;;;;7.75;4.72;;;;;;;21.86;60.66;100274.97;1804221;77;21024;-42
2021/07/09 02:30:16;;;;;;;6.17;4.17;;;;;;;21.83;60.67;100281.33;1795722;77;21000;-43
2021/07/09 02:32:43;;;;;;;9.68;4.35;;;;;;;21.80;60.60;100282.13;1790890;77;21017;-43
2021/07/09 02:35:13;;;;;;;5.45;4.10;;;;;;;21.79;60.71;100279.78;1804744;77;21514;-43
2021/07/09 02:37:42;;;;;;;7.30;3.80;;;;;;;21.78;60.68;100281.78;1812918;79;21162;-43
2021/07/09 02:40:14;;;;;;;5.67;3.85;;;;;;;21.81;60.69;100275.42;1806057;77;21807;-42
2021/07/09 02:42:43;;;;;;;5.75;4.25;;;;;;;21.87;60.64;100277.92;1779280;80;21029;-43
2021/07/09 02:45:12;;;;;;;6.47;4.30;;;;;;;21.89;60.40;100274.13;1786166;77;20966;-43
2021/07/09 02:47:41;;;;;;;7.08;3.85;;;;;;;21.92;60.53;100267.80;1800072;77;21566;-43
2021/07/09 02:50:12;;;;;;;6.97;3.70;;;;;;;21.94;60.53;100273.70;1803751;77;21096;-43
2021/07/09 02:52:39;;;;;;;8.48;3.90;;;;;;;21.96;60.64;100275.46;1784494;79;20961;-43
2021/07/09 02:55:08;;;;;;;11.73;4.30;;;;;;;21.98;60.73;100268.91;1780669;78;21037;-43
2021/07/09 02:57:35;;;;;;;6.35;4.40;;;;;;;22.02;60.92;100274.41;1731566;81;20942;-43
2021/07/09 03:00:11;;;;;;;9.30;4.55;;;;;;;22.03;60.80;100274.56;1757809;80;21548;-43
2021/07/09 03:02:38;;;;;;;8.55;4.33;;;;;;;22.03;60.71;100267.66;1757021;80;22136;-43
2021/07/09 03:05:06;;;;;;;5.75;3.83;;;;;;;22.01;60.93;100270.86;1757943;79;20936;-43
2021/07/09 03:07:33;;;;;;;8.20;3.80;;;;;;;22.06;60.99;100273.16;1749883;79;20946;-43
2021/07/09 03:10:05;;;;;;;7.90;4.37;;;;;;;22.14;60.98;100274.43;1760267;80;21524;-43
2021/07/09 03:12:31;;;;;;;6.90;3.80;;;;;;;22.19;61.00;100277.52;1707000;84;21562;-43
2021/07/09 03:14:58;;;;;;;7.30;3.62;;;;;;;22.23;61.04;100273.31;1754175;81;21186;-43
2021/07/09 03:17:25;;;;;;;5.53;3.47;;;;;;;22.26;61.05;100272.50;1756509;81;20966;-43
2021/07/09 03:19:51;;;;;;;7.58;3.90;;;;;;;22.29;61.12;100266.92;1762409;80;21068;-43
2021/07/09 03:22:20;;;;;;;6.03;3.67;;;;;;;22.33;61.31;100270.41;1732772;81;21006;-43
2021/07/09 03:24:47;;;;;;;6.58;3.85;;;;;;;22.36;61.38;100263.28;1724171;81;21036;-43
2021/07/09 03:27:13;;;;;;;10.43;3.60;;;;;;;22.38;61.39;100263.63;1725358;80;21551;-43
2021/07/09 03:29:40;;;;;;;6.40;3.85;;;;;;;22.41;61.34;100266.33;1736056;80;21547;-43
2021/07/09 03:32:09;;;;;;;5.40;3.27;;;;;;;22.46;61.56;100269.25;1736724;80;20972;-43
2021/07/09 03:34:37;;;;;;;4.85;3.20;;;;;;;22.51;61.59;100272.92;1741899;80;21040;-43
2021/07/09 03:37:04;;;;;;;7.53;3.37;;;;;;;22.61;61.54;100274.72;1741084;80;21049;-43
2021/07/09 03:39:32;;;;;;;5.08;3.10;;;;;;;22.71;61.34;100279.33;1740269;80;21558;-43
2021/07/09 03:41:59;;;;;;;6.12;3.35;;;;;;;22.78;61.34;100273.70;1740288;82;21032;-43
2021/07/09 03:44:27;;;;;;;7.58;3.65;;;;;;;22.85;61.19;100272.81;1747197;80;21556;-43
2021/07/09 03:46:53;;;;;;;6.05;3.67;;;;;;;22.91;61.08;100272.48;1744344;80;20985;-44
2021/07/09 03:49:20;;;;;;;6.80;3.55;;;;;;;22.98;61.21;100272.98;1736000;82;20999;-43
2021/07/09 03:51:47;;;;;;;5.75;3.75;;;;;;;23.04;61.10;100275.45;1736607;81;22041;-43
2021/07/09 03:54:14;;;;;;;11.38;4.42;;;;;;;23.09;60.43;100273.59;1767471;80;20957;-43
2021/07/09 03:56:43;;;;;;;9.07;4.30;;;;;;;23.10;60.21;100279.27;1731029;82;21307;-44
2021/07/09 03:59:09;;;;;;;6.55;4.00;;;;;;;22.87;60.32;100240.76;1793260;78;21033;-43
2021/07/09 04:01:36;;;;;;;5.85;3.70;;;;;;;23.13;60.40;100282.59;1797086;78;22447;-43
2021/07/09 04:04:05;;;;;;;8.43;3.83;;;;;;;23.16;60.58;100284.51;1804784;78;21200;-43
2021/07/09 04:06:32;;;;;;;5.40;3.72;;;;;;;23.21;60.88;100282.64;1787715;79;21699;-43
2021/07/09 04:09:00;;;;;;;5.62;4.05;;;;;;;23.31;60.61;100284.44;1798211;79;21004;-43
2021/07/09 04:11:27;;;;;;;7.60;4.00;;;;;;;23.39;60.41;100282.48;1745973;80;21020;-43
2021/07/09 04:13:55;;;;;;;6.60;4.17;;;;;;;23.46;60.62;100286.37;1746948;80;21084;-43
2021/07/09 04:16:22;;;;;;;7.75;3.92;;;;;;;23.53;60.46;100280.08;1757839;80;21123;-43
2021/07/09 04:18:49;;;;;;;7.33;3.60;;;;;;;23.63;60.15;100286.02;1750544;80;20977;-43
2021/07/09 04:21:15;;;;;;;6.30;4.00;;;;;;;23.71;59.90;100287.45;1812663;79;21041;-43
2021/07/09 04:23:42;;;;;;;7.50;3.85;;;;;;;23.80;59.07;100285.50;1803558;79;21434;-43
2021/07/09 04:26:09;;;;;;;6.83;3.65;;;;;;;23.87;58.75;100285.97;1786590;79;20993;-43
2021/07/09 04:28:36;;;;;;;7.20;3.65;;;;;;;23.94;58.17;100292.13;1781616;79;21106;-43
2021/07/09 04:31:02;;;;;;;4.50;3.37;;;;;;;24.02;57.82;100289.97;1797258;78;20890;-43
2021/07/09 04:33:29;;;;;;;6.70;3.02;;;;;;;24.08;58.16;100291.04;1808688;78;20887;-43
2021/07/09 04:35:55;;;;;;;7.65;3.65;;;;;;;24.14;57.81;100283.19;1808570;79;21037;-45
2021/07/09 04:38:23;;;;;;;4.55;2.87;;;;;;;24.21;58.20;100281.66;1812093;79;21029;-43
2021/07/09 04:40:51;;;;;;;9.40;3.20;;;;;;;24.30;57.24;100284.47;1811931;79;20914;-42
2021/07/09 04:43:18;;;;;;;4.97;3.02;;;;;;;24.36;57.01;100282.13;1791861;79;21013;-43
2021/07/09 04:45:45;;;;;;;4.87;3.37;;;;;;;24.43;57.49;100280.59;1811094;79;20913;-42
2021/07/09 04:48:12;;;;;;;6.85;3.00;;;;;;;24.49;57.66;100285.80;1803553;79;21037;-43
2021/07/09 04:50:39;;;;;;;6.28;2.80;;;;;;;24.53;56.95;100289.27;1796642;79;21013;-43
2021/07/09 04:53:06;;;;;;;4.47;2.58;;;;;;;24.59;56.36;100288.15;1764165;79;21884;-43
2021/07/09 04:55:32;;;;;;;5.30;2.50;;;;;;;24.64;56.13;100285.61;1762504;81;21084;-43
2021/07/09 04:57:59;;;;;;;4.97;2.72;;;;;;;24.69;55.09;100282.93;1762495;81;21516;-42
2021/07/09 05:00:25;;;;;;;3.35;2.42;;;;;;;24.74;53.98;100284.44;1797164;79;20957;-42
2021/07/09 05:02:54;;;;;;;5.78;2.70;;;;;;;24.77;52.93;100279.39;1801850;79;21507;-42
2021/07/09 05:05:20;;;;;;;9.55;2.90;;;;;;;24.79;53.34;100282.50;1780878;79;21126;-43
2021/07/09 05:07:47;;;;;;;4.15;2.67;;;;;;;24.81;53.65;100282.25;1813422;79;20997;-42
2021/07/09 05:10:14;;;;;;;3.35;2.58;;;;;;;24.88;53.30;100281.34;1774845;80;20965;-42
2021/07/09 05:12:41;;;;;;;6.50;2.92;;;;;;;24.93;53.37;100282.95;1744681;82;21561;-42
2021/07/09 05:15:09;;;;;;;4.90;2.70;;;;;;;24.97;53.70;100281.50;1808603;79;21036;-42
2021/07/09 05:17:36;;;;;;;4.42;2.85;;;;;;;25.04;53.63;100285.47;1804679;79;21148;-42
2021/07/09 05:20:04;;;;;;;4.25;2.85;;;;;;;25.10;52.80;100283.73;1796048;79;21001;-42
2021/07/09 05:22:30;;;;;;;9.75;2.98;;;;;;;25.18;53.16;100284.31;1788049;79;20976;-42
2021/07/09 05:24:58;;;;;;;4.37;2.67;;;;;;;25.25;53.00;100290.48;1782488;79;21007;-45
2021/07/09 05:27:27;;;;;;;6.65;2.98;;;;;;;25.32;53.15;100280.55;1781610;80;21554;-44
2021/07/09 05:29:53;;;;;;;3.50;2.52;;;;;;;25.39;52.75;100281.77;1781923;80;21110;-43
2021/07/09 05:32:23;;;;;;;8.25;3.12;;;;;;;25.46;52.92;100276.00;1782198;79;21016;-43
2021/07/09 05:34:52;;;;;;;8.75;2.92;;;;;;;25.57;53.46;100279.12;1784624;79;20996;-43
2021/07/09 05:37:19;;;;;;;4.37;2.83;;;;;;;25.65;52.38;100279.91;1781253;79;21659;-43
2021/07/09 05:39:47;;;;;;;3.77;2.65;;;;;;;25.72;51.41;100281.08;1791902;79;21036;-43
2021/07/09 05:42:14;;;;;;;7.30;2.83;;;;;;;25.79;50.93;100275.33;1804527;79;21138;-43
2021/07/09 05:44:41;;;;;;;6.30;3.00;;;;;;;25.85;50.79;100279.09;1781524;80;21064;-43
2021/07/09 05:47:08;;;;;;;7.15;2.72;;;;;;;25.94;51.38;100286.81;1738387;82;21033;-43
2021/07/09 05:49:35;;;;;;;4.20;2.72;;;;;;;26.02;50.75;100281.81;1736246;80;21088;-43
2021/07/09 05:52:02;;;;;;;3.27;2.75;;;;;;;26.09;50.71;100276.83;1782856;78;21064;-43
2021/07/09 05:54:31;;;;;;;4.45;3.10;;;;;;;26.17;51.02;100279.56;1783074;79;20997;-43
2021/07/09 05:56:58;;;;;;;5.50;2.72;;;;;;;26.24;51.63;100282.74;1761374;79;20965;-43
2021/07/09 05:59:25;;;;;;;5.05;2.85;;;;;;;26.28;50.79;100275.88;1774956;79;21515;-43
2021/07/09 06:01:51;;;;;;;5.40;2.77;;;;;;;26.31;50.57;100272.20;1767389;79;21041;-43
2021/07/09 06:04:19;;;;;;;3.80;2.42;;;;;;;26.36;49.95;100270.25;1785618;79;21467;-43
2021/07/09 06:06:47;;;;;;;5.30;2.67;;;;;;;26.41;49.74;100272.31;1776435;79;21117;-43
2021/07/09 06:09:13;;;;;;;3.80;2.33;;;;;;;26.45;49.00;100270.19;1778328;80;21041;-43
2021/07/09 06:11:39;;;;;;;3.87;2.62;;;;;;;26.50;49.12;100271.02;1784280;79;20965;-43
2021/07/09 06:14:07;;;;;;;6.47;2.67;;;;;;;26.55;48.48;100267.08;1782316;79;20961;-43
2021/07/09 06:16:34;;;;;;;4.25;2.67;;;;;;;26.58;48.23;100273.73;1774254;80;21037;-43
2021/07/09 06:19:00;;;;;;;10.28;3.17;;;;;;;26.64;47.98;100274.73;1762670;79;21758;-44
2021/07/09 06:21:27;;;;;;;8.50;2.58;;;;;;;26.68;47.78;100275.39;1698467;84;20942;-43
2021/07/09 06:23:53;;;;;;;6.97;2.85;;;;;;;26.74;48.10;100267.44;1725341;83;21064;-43
2021/07/09 06:26:21;;;;;;;5.53;2.52;;;;;;;26.83;47.98;100272.31;1725867;82;21054;-43
2021/07/09 06:28:48;;;;;;;18.20;3.20;;;;;;;26.89;46.10;100266.38;1727253;81;21104;-44
2021/07/09 06:31:14;;;;;;;2.58;2.17;;;;;;;26.94;46.80;100274.17;1729260;81;21594;-43
2021/07/09 06:33:41;;;;;;;6.72;2.45;;;;;;;27.02;45.39;100265.73;1725379;83;21083;-44
2021/07/09 06:36:08;;;;;;;5.58;2.40;;;;;;;27.08;44.34;100266.72;1728936;81;20956;-43
2021/07/09 06:38:34;;;;;;;5.40;2.60;;;;;;;27.15;42.85;100267.88;1738355;81;21546;-43
2021/07/09 06:41:01;;;;;;;4.15;2.58;;;;;;;27.22;40.80;100269.02;1730753;82;21040;-43
2021/07/09 06:43:28;;;;;;;3.22;2.27;;;;;;;27.26;40.70;100275.84;1750264;81;21522;-43
2021/07/09 06:45:54;;;;;;;7.15;2.37;;;;;;;27.29;41.15;100272.17;1727364;81;21032;-43
2021/07/09 06:48:21;;;;;;;6.92;2.40;;;;;;;27.35;41.53;100262.02;1768495;81;21006;-44
2021/07/09 06:50:48;;;;;;;5.42;2.70;;;;;;;27.43;41.95;100264.70;1756914;81;21080;-44
2021/07/09 06:53:15;;;;;;;4.03;2.70;;;;;;;27.53;41.13;100257.22;1767277;79;21533;-44
2021/07/09 06:55:42;;;;;;;4.35;2.42;;;;;;;27.61;40.53;100258.52;1760804;80;21090;-44
2021/07/09 06:58:09;;;;;;;5.08;2.60;;;;;;;27.70;41.07;100253.61;1753045;80;21542;-44
2021/07/09 07:00:35;;;;;;;5.22;2.58;;;;;;;27.79;40.47;100252.30;1752570;79;21007;-44
2021/07/09 07:03:02;;;;;;;3.62;2.30;;;;;;;27.88;39.38;100248.95;1755786;80;21060;-43
2021/07/09 07:05:29;;;;;;;4.75;2.37;;;;;;;27.98;38.30;100248.38;1747037;79;21064;-43
2021/07/09 07:07:56;;;;;;;6.12;2.30;;;;;;;28.08;38.71;100247.95;1744440;82;21109;-43
2021/07/09 07:10:22;;;;;;;9.65;3.20;;;;;;;28.18;37.14;100245.22;1762445;79;21718;-43
2021/07/09 07:12:49;;;;;;;92.80;10.25;;;;;;;28.27;37.04;100241.11;1755015;80;21040;-43
2021/07/09 07:15:15;;;;;;;6.95;3.05;;;;;;;28.36;37.20;100241.13;1756125;81;21025;-43
2021/07/09 07:17:44;;;;;;;6.22;2.12;;;;;;;28.43;36.93;100243.63;1765554;80;21044;-43
2021/07/09 07:20:12;;;;;;;3.12;1.87;;;;;;;28.53;35.59;100243.20;1755969;80;21157;-43
2021/07/09 07:22:39;;;;;;;6.55;1.70;;;;;;;28.62;34.63;100248.02;1771079;80;21541;-43
2021/07/09 07:25:07;;;;;;;6.17;1.72;;;;;;;28.68;34.36;100241.99;1765266;80;21052;-43
2021/07/09 07:27:34;;;;;;;5.92;1.87;;;;;;;28.75;34.49;100246.55;1765783;80;21038;-43
2021/07/09 07:30:00;;;;;;;5.42;2.10;;;;;;;28.82;34.65;100240.64;1759603;81;21021;-43
2021/07/09 07:32:27;;;;;;;6.42;2.05;;;;;;;28.89;35.02;100241.76;1765666;81;21109;-43
2021/07/09 07:34:54;;;;;;;5.72;2.08;;;;;;;28.94;34.33;100236.95;1765189;80;21765;-43
2021/07/09 07:37:21;;;;;;;2.90;1.82;;;;;;;28.99;34.36;100241.14;1767842;79;20962;-43
2021/07/09 07:39:48;;;;;;;3.55;1.80;;;;;;;29.05;34.09;100240.70;1777674;80;21041;-43
2021/07/09 07:42:15;;;;;;;6.03;1.82;;;;;;;29.14;34.16;100243.48;1752409;81;21080;-43
2021/07/09 07:44:41;;;;;;;6.58;1.60;;;;;;;29.21;33.84;100241.14;1752580;81;21790;-43
2021/07/09 07:47:08;;;;;;;3.02;1.80;;;;;;;29.32;32.88;100246.30;1752188;81;20965;-43
2021/07/09 07:49:35;;;;;;;3.08;1.42;;;;;;;29.43;32.34;100249.41;1750490;81;21060;-43
2021/07/09 07:52:04;;;;;;;4.05;1.80;;;;;;;29.52;32.10;100250.80;1749082;79;21105;-43
2021/07/09 07:54:30;;;;;;;4.05;1.82;;;;;;;29.57;30.15;100248.77;1777365;79;21036;-43
2021/07/09 07:56:57;;;;;;;1.80;1.30;;;;;;;29.60;31.41;100247.83;1778340;79;21168;-43
2021/07/09 07:59:24;;;;;;;3.25;1.52;;;;;;;29.47;31.41;100211.52;1791350;79;21025;-43
2021/07/09 08:01:51;;;;;;;5.50;2.00;;;;;;;29.79;31.92;100236.76;1747170;80;21511;-43
2021/07/09 08:04:18;;;;;;;4.90;1.70;;;;;;;29.94;31.45;100236.13;1786967;79;21033;-43
2021/07/09 08:06:45;;;;;;;2.25;1.67;;;;;;;30.05;31.19;100227.39;1783383;79;21048;-43
2021/07/09 08:09:11;;;;;;;5.33;1.70;;;;;;;30.16;31.04;100224.09;1779468;80;21819;-43
2021/07/09 08:11:40;;;;;;;5.22;1.70;;;;;;;30.27;30.40;100223.55;1749560;81;20941;-43
2021/07/09 08:14:06;;;;;;;3.80;1.60;;;;;;;30.32;30.65;100215.30;1749190;82;21055;-43
2021/07/09 08:16:32;;;;;;;5.65;1.95;;;;;;;30.40;31.04;100213.72;1748914;82;21004;-43
2021/07/09 08:19:00;;;;;;;4.60;1.90;;;;;;;30.50;31.23;100209.63;1743924;82;21013;-43
2021/07/09 08:21:27;;;;;;;5.90;1.90;;;;;;;30.61;30.80;100214.70;1780588;79;21133;-43
2021/07/09 08:23:54;;;;;;;2.47;1.82;;;;;;;30.69;30.46;100209.53;1784674;79;21447;-45
2021/07/09 08:26:21;;;;;;;4.40;1.70;;;;;;;30.77;30.13;100205.89;1814143;78;21431;-45
2021/07/09 08:28:48;;;;;;;7.03;1.80;;;;;;;30.90;29.74;100202.83;1791790;78;21011;-45
2021/07/09 08:31:15;;;;;;;3.30;1.65;;;;;;;31.00;29.64;100194.50;1782849;79;21001;-44
2021/07/09 08:33:41;;;;;;;4.58;1.82;;;;;;;30.90;30.18;100169.23;1779310;78;21156;-43
2021/07/09 08:36:08;;;;;;;2.58;1.80;;;;;;;31.18;30.58;100195.77;1776568;80;21033;-43
2021/07/09 08:38:35;;;;;;;2.47;1.80;;;;;;;31.24;30.43;100191.68;1784424;79;21080;-43
2021/07/09 08:41:02;;;;;;;4.42;1.70;;;;;;;31.28;31.03;100193.03;1771873;78;20989;-44
2021/07/09 08:43:29;;;;;;;2.47;1.70;;;;;;;31.33;29.53;100190.19;1779342;79;21493;-44
2021/07/09 08:45:56;;;;;;;2.50;1.45;;;;;;;31.37;31.12;100190.80;1798821;79;21117;-44
2021/07/09 08:48:24;;;;;;;3.80;1.50;;;;;;;31.43;29.06;100189.62;1793083;78;20930;-44
2021/07/09 08:50:51;;;;;;;3.50;1.90;;;;;;;31.53;29.44;100193.73;1770341;80;21029;-44
2021/07/09 08:53:17;;;;;;;5.87;1.70;;;;;;;31.58;29.02;100191.05;1771422;80;21567;-44
2021/07/09 08:55:45;;;;;;;4.35;1.70;;;;;;;31.64;28.38;100189.13;1771979;79;21034;-43
2021/07/09 08:58:11;;;;;;;2.62;1.72;;;;;;;31.65;28.82;100187.09;1776819;79;21793;-43
2021/07/09 09:00:40;;;;;;;3.17;1.80;;;;;;;31.67;28.27;100183.94;1783589;79;21463;-43
2021/07/09 09:03:24;;;;;;;3.80;1.72;;;;;;;31.71;27.58;100187.32;1755066;80;21033;-44
2021/07/09 09:05:53;;;;;;;4.20;2.00;;;;;;;31.76;28.44;100187.27;1771375;79;21453;-43
2021/07/09 09:08:23;;;;;;;1.87;1.40;;;;;;;31.76;28.17;100188.67;1781576;79;21348;-43
2021/07/09 09:10:51;;;;;;;;;;;;;;;31.81;28.19;100187.98;1780363;79;21097;-44
2021/07/09 09:13:29;;;;;;;3.85;1.72;;;;;;;31.84;28.05;100178.00;1741857;82;20134;-43
2021/07/09 09:16:11;;;;;;;3.63;1.47;;;;;;;31.82;27.69;100183.93;1705343;84;21099;-43
2021/07/09 09:18:49;;;;;;;3.85;1.72;;;;;;;31.92;28.75;100178.36;1734385;82;20950;-44
2021/07/09 09:21:23;;;;;;;9.35;2.10;;;;;;;31.95;27.87;100167.59;1723049;81;21037;-44
2021/07/09 09:23:54;;;;;;;6.37;1.75;;;;;;;31.92;29.02;100176.95;1769311;81;20965;-44
2021/07/09 09:26:46;;;;;;;6.67;1.97;;;;;;;31.89;28.12;100173.11;1740358;81;21021;-44
2021/07/09 09:29:33;;;;;;;4.87;2.02;;;;;;;31.87;28.83;100167.83;1712737;82;21085;-44
2021/07/09 09:32:09;;;;;;;11.12;2.70;;;;;;;31.83;29.84;100170.06;1713765;83;20996;-44
2021/07/09 09:34:45;;;;;;;6.30;1.98;;;;;;;31.83;29.72;100167.26;1713656;83;21034;-44
2021/07/09 09:37:23;;;;;;;7.67;1.98;;;;;;;31.89;29.58;100169.53;1731271;82;20938;-44
2021/07/09 09:39:50;;;;;;;4.25;2.00;;;;;;;31.91;29.06;100166.36;1737841;82;21024;-44
2021/07/09 09:42:22;;;;;;;4.62;2.10;;;;;;;31.92;28.06;100171.34;1738311;82;20937;-44
2021/07/09 09:44:53;;;;;;;3.27;1.77;;;;;;;31.93;28.58;100161.68;1738028;82;21038;-44
2021/07/09 09:47:22;;;;;;;8.60;2.17;;;;;;;31.98;28.35;100160.99;1726444;82;21058;-44
2021/07/09 09:49:56;;;;;;;5.33;2.25;;;;;;;32.03;28.85;100160.93;1736380;82;21782;-44
2021/07/09 09:52:41;;;;;;;8.35;2.00;;;;;;;32.03;29.58;100156.73;1713308;82;21041;-44
2021/07/09 09:55:21;;;;;;;5.33;2.30;;;;;;;32.07;28.89;100160.88;1703249;82;21561;-44
2021/07/09 09:57:52;;;;;;;10.88;2.15;;;;;;;32.15;28.32;100153.61;1778578;80;21057;-44
2021/07/09 10:00:27;;;;;;;9.68;2.25;;;;;;;32.19;28.50;100154.20;1768950;80;20970;-44
2021/07/09 10:02:53;;;;;;;13.78;2.75;;;;;;;32.28;28.00;100142.84;1780888;80;21130;-44
2021/07/09 10:05:20;;;;;;;6.72;2.10;;;;;;;32.39;27.94;100141.45;1778120;78;21751;-44
2021/07/09 10:07:47;;;;;;;3.02;1.87;;;;;;;32.49;28.26;100148.45;1775310;80;21025;-44
2021/07/09 10:10:15;;;;;;;2.67;1.90;;;;;;;32.52;28.31;100146.08;1780916;80;21003;-44
2021/07/09 10:12:43;;;;;;;5.53;1.82;;;;;;;32.55;27.71;100147.89;1781244;80;21022;-44
2021/07/09 10:15:12;;;;;;;3.92;2.50;;;;;;;32.63;28.60;100151.22;1780765;80;21142;-44
2021/07/09 10:17:38;;;;;;;4.95;2.00;;;;;;;32.73;27.96;100142.78;1780162;80;21008;-44
2021/07/09 10:20:07;;;;;;;2.70;2.05;;;;;;;32.86;28.51;100150.86;1780574;79;21052;-44
2021/07/09 10:22:34;;;;;;;3.00;2.25;;;;;;;32.96;28.53;100145.86;1750386;82;21497;-44
2021/07/09 10:25:01;;;;;;;3.80;2.10;;;;;;;33.07;27.50;100148.14;1793380;79;21045;-44
2021/07/09 10:27:28;;;;;;;4.72;2.47;;;;;;;33.11;27.33;100133.23;1747545;80;21105;-44
2021/07/09 10:29:54;;;;;;;7.67;3.05;;;;;;;33.25;27.71;100123.83;1771119;80;20945;-44
2021/07/09 10:32:37;;;;;;;2.72;2.02;;;;;;;33.28;28.14;100125.00;1762784;81;20980;-44
2021/07/09 10:35:08;;;;;;;3.62;2.72;;;;;;;33.36;28.08;100121.09;1767463;79;20987;-44
2021/07/09 10:37:36;;;;;;;4.90;1.92;;;;;;;33.48;27.62;100111.50;1778822;79;21095;-44
2021/07/09 10:40:19;;;;;;;5.95;2.30;;;;;;;33.61;27.77;100110.45;1780718;80;20950;-44
2021/07/09 10:42:49;;;;;;;3.35;2.12;;;;;;;33.77;27.24;100109.84;1781029;80;21459;-44
2021/07/09 10:45:25;;;;;;;4.85;2.30;;;;;;;34.01;26.48;100116.52;1777583;80;21480;-44
2021/07/09 10:48:09;;;;;;;4.42;1.90;;;;;;;34.28;26.18;100108.09;1777117;80;21013;-44
2021/07/09 10:50:45;;;;;;;8.20;3.62;;;;;;;34.53;25.51;100109.23;1775368;80;21084;-44
2021/07/09 10:53:23;;;;;;;3.95;2.10;;;;;;;34.75;25.67;100103.08;1780848;79;22218;-45
2021/07/09 10:56:00;;;;;;;6.03;2.15;;;;;;;34.89;25.30;100099.27;1691126;83;20973;-44
2021/07/09 10:58:40;;;;;;;13.43;2.60;;;;;;;35.06;26.40;100101.33;1734198;80;21008;-44
2021/07/09 11:01:12;;;;;;;2.50;1.82;;;;;;;35.28;25.47;100092.93;1733018;82;20965;-45
2021/07/09 11:03:57;;;;;;;4.47;1.62;;;;;;;35.50;24.52;100096.38;1741390;80;20993;-44
2021/07/09 11:06:37;;;;;;;6.50;2.22;;;;;;;35.69;24.28;100092.54;1736300;81;21142;-44
2021/07/09 11:09:10;;;;;;;4.90;2.08;;;;;;;35.91;23.69;100083.27;1707861;82;21531;-45
2021/07/09 11:11:50;;;;;;;2.65;2.05;;;;;;;36.07;23.96;100087.31;1771515;79;21071;-45
2021/07/09 11:14:39;;;;;;;3.72;2.08;;;;;;;36.16;24.08;100081.44;1762949;79;21040;-45
2021/07/09 11:17:21;;;;;;;4.50;2.20;;;;;;;36.28;23.55;100082.91;1766462;79;21006;-45
2021/07/09 11:19:49;;;;;;;6.55;2.42;;;;;;;36.52;24.04;100078.82;1784047;79;21091;-45
2021/07/09 11:22:16;;;;;;;5.40;2.00;;;;;;;36.76;23.69;100077.43;1778834;79;21021;-45
2021/07/09 11:24:51;;;;;;;3.33;2.02;;;;;;;36.93;23.46;100083.75;1764204;80;21543;-45
2021/07/09 11:27:14;;;;;;;2.65;2.08;;;;;;;37.03;23.08;100073.66;1772981;79;21080;-45
2021/07/09 11:29:44;;;;;;;3.33;1.98;;;;;;;37.12;22.86;100073.37;1767931;81;21589;-45
2021/07/09 11:32:18;;;;;;;5.20;2.10;;;;;;;37.21;21.83;100065.19;1772630;81;21830;-45
2021/07/09 11:34:52;;;;;;;5.03;2.00;;;;;;;37.24;23.10;100062.72;1777625;80;21036;-45